Time;durP1;ratioP1;P1;durP2;ratioP2;P2;SDS_P1;SDS_P2;PMS_P1;PMS_P2;Temp;Humidity;BMP_temperature;BMP_pressure;BME280_temperature;BME280_humidity;BME280_pressure;Samples;Min_cycle;Max_cycle;Signal;HPM_P1;HPM_P2
2021/09/03 00:00:19;;;;;;;3.38;2.40;;;;;;;31.68;18.83;95088.66;5094455;28;20043;-57
2021/09/03 00:02:46;;;;;;;;;;;;;;;31.58;18.92;95090.31;5094818;28;20439;-57
2021/09/03 00:05:18;;;;;;;4.20;2.38;;;;;;;31.48;18.88;95083.84;5075252;28;20299;-57
2021/09/03 00:07:47;;;;;;;4.00;2.45;;;;;;;31.40;19.02;95084.34;5072704;28;20060;-57
2021/09/03 00:10:16;;;;;;;3.53;2.40;;;;;;;31.47;19.24;95076.16;5073900;28;20048;-58
2021/09/03 00:12:43;;;;;;;2.63;2.30;;;;;;;31.68;18.81;95070.50;5073496;28;20048;-54
2021/09/03 00:15:12;;;;;;;3.33;2.50;;;;;;;31.48;19.27;95062.25;5072363;28;20048;-54
2021/09/03 00:17:40;;;;;;;3.10;2.08;;;;;;;31.55;18.87;95064.88;5070840;28;20056;-55
2021/09/03 00:20:09;;;;;;;3.20;2.30;;;;;;;31.47;19.24;95059.94;5084247;28;20043;-54
2021/09/03 00:22:36;;;;;;;3.08;2.35;;;;;;;31.27;19.32;95065.97;5081352;28;20450;-54
2021/09/03 00:25:05;;;;;;;2.67;2.33;;;;;;;31.47;18.58;95068.81;5073011;28;20048;-56
2021/09/03 00:27:32;;;;;;;4.07;2.50;;;;;;;31.66;18.57;95064.75;5080024;28;20382;-53
2021/09/03 00:29:59;;;;;;;3.53;2.60;;;;;;;31.49;18.93;95057.59;5094429;28;20047;-53
2021/09/03 00:32:27;;;;;;;3.22;2.40;;;;;;;31.53;18.66;95056.41;5093366;28;20059;-53
2021/09/03 00:34:54;;;;;;;3.00;2.25;;;;;;;31.34;18.95;95056.25;5092800;28;20052;-53
2021/09/03 00:37:21;;;;;;;2.50;2.30;;;;;;;31.40;19.34;95058.09;5090555;28;20051;-53
2021/09/03 00:39:48;;;;;;;2.35;2.15;;;;;;;31.31;19.38;95062.47;5073556;28;20462;-57
2021/09/03 00:42:15;;;;;;;2.53;2.25;;;;;;;31.28;19.09;95043.19;5072072;28;20075;-54
2021/09/03 00:44:43;;;;;;;4.10;2.60;;;;;;;31.36;19.14;95043.88;5072889;28;20056;-55
2021/09/03 00:47:10;;;;;;;4.38;2.55;;;;;;;31.25;18.84;95048.63;5072757;28;20041;-56
2021/09/03 00:49:37;;;;;;;3.65;2.78;;;;;;;31.20;19.08;95057.91;5092409;28;20078;-58
2021/09/03 00:52:05;;;;;;;3.28;2.17;;;;;;;31.33;18.65;95049.31;5093304;28;20447;-55
2021/09/03 00:54:33;;;;;;;3.38;2.53;;;;;;;31.33;18.91;95041.22;5060144;28;20055;-53
2021/09/03 00:57:01;;;;;;;2.40;2.20;;;;;;;31.40;18.89;95043.81;5075078;28;20060;-52
2021/09/03 00:59:28;;;;;;;3.08;2.50;;;;;;;31.21;18.82;95031.69;5093182;28;20059;-54
2021/09/03 01:01:55;;;;;;;2.75;2.40;;;;;;;31.50;18.57;95037.53;5093762;28;20044;-52
2021/09/03 01:04:22;;;;;;;2.67;2.30;;;;;;;31.34;18.85;95040.81;5093901;28;20059;-54
2021/09/03 01:06:50;;;;;;;2.80;2.45;;;;;;;31.51;18.94;95039.06;5094834;28;20044;-57
2021/09/03 01:09:17;;;;;;;3.13;2.53;;;;;;;31.32;19.11;95042.38;5093880;28;20048;-53
2021/09/03 01:11:44;;;;;;;2.85;2.50;;;;;;;31.03;19.37;95041.88;5093100;28;20454;-54
2021/09/03 01:14:11;;;;;;;2.85;2.30;;;;;;;31.46;19.05;95050.31;5094882;28;20055;-57
2021/09/03 01:16:38;;;;;;;3.95;2.75;;;;;;;31.35;19.11;95038.88;5094300;28;20047;-55
2021/09/03 01:19:06;;;;;;;3.58;2.40;;;;;;;31.02;19.47;95051.94;5082051;28;20056;-52
2021/09/03 01:21:35;;;;;;;2.95;2.53;;;;;;;31.05;19.32;95040.31;5094904;28;20477;-56
2021/09/03 01:24:03;;;;;;;4.00;2.45;;;;;;;31.04;19.38;95032.63;5084950;28;20048;-54
2021/09/03 01:26:31;;;;;;;2.80;2.53;;;;;;;30.92;19.89;95009.59;5074197;28;20367;-53
2021/09/03 01:28:58;;;;;;;4.72;2.97;;;;;;;31.04;19.76;95030.69;5077280;28;20661;-56
2021/09/03 01:31:25;;;;;;;3.10;2.70;;;;;;;30.97;19.72;95022.66;5072727;28;20055;-53
2021/09/03 01:33:55;;;;;;;3.45;2.08;;;;;;;30.88;19.85;95019.66;5073594;28;20068;-54
2021/09/03 01:36:29;;;;;;;2.97;2.20;;;;;;;30.78;20.15;95013.22;5074409;28;20056;-54
2021/09/03 01:38:57;;;;;;;4.30;2.63;;;;;;;30.75;20.06;95013.25;5087193;28;20074;-54
2021/09/03 01:41:25;;;;;;;5.72;2.78;;;;;;;30.88;19.94;95012.31;5094490;28;20048;-58
2021/09/03 01:43:52;;;;;;;3.15;2.50;;;;;;;30.85;19.79;95017.75;5075089;28;20378;-56
2021/09/03 01:46:20;;;;;;;4.35;2.67;;;;;;;30.80;19.88;95018.19;5091519;28;20052;-57
2021/09/03 01:48:47;;;;;;;4.45;2.88;;;;;;;30.84;19.67;95024.34;5093612;28;20063;-52
2021/09/03 01:51:14;;;;;;;5.68;4.07;;;;;;;30.71;19.83;95018.69;5074301;28;20771;-56
2021/09/03 01:53:41;;;;;;;3.20;2.90;;;;;;;30.96;19.67;95026.50;5073442;28;20052;-54
2021/09/03 01:56:09;;;;;;;3.55;3.20;;;;;;;30.71;19.53;95017.88;5073241;28;20044;-57
2021/09/03 01:58:36;;;;;;;4.20;3.03;;;;;;;30.87;19.52;95012.72;5089124;28;20066;-53
2021/09/03 02:01:03;;;;;;;4.28;3.53;;;;;;;30.84;19.86;95008.13;5093171;28;20454;-55
2021/09/03 02:03:30;;;;;;;4.93;3.42;;;;;;;30.69;19.83;94992.06;5093567;28;20378;-56
2021/09/03 02:05:58;;;;;;;4.43;3.55;;;;;;;30.72;19.74;95001.31;5077666;28;20402;-52
2021/09/03 02:08:25;;;;;;;7.15;3.25;;;;;;;30.74;19.96;94995.53;5080346;28;20051;-57
2021/09/03 02:10:53;;;;;;;4.20;3.20;;;;;;;30.68;20.01;94995.16;5092274;28;20060;-57
2021/09/03 02:13:20;;;;;;;4.38;2.88;;;;;;;30.87;19.66;94991.91;5093886;28;20078;-58
2021/09/03 02:15:48;;;;;;;4.32;3.15;;;;;;;30.91;19.89;94986.47;5093763;28;20047;-56
2021/09/03 02:18:15;;;;;;;3.78;3.00;;;;;;;30.83;19.43;94976.91;5092344;28;20047;-56
2021/09/03 02:20:43;;;;;;;3.90;3.17;;;;;;;30.78;19.68;94977.38;5091126;28;20059;-54
2021/09/03 02:23:10;;;;;;;4.00;3.00;;;;;;;30.79;19.48;94973.50;5090803;28;20036;-54
2021/09/03 02:25:37;;;;;;;3.20;2.90;;;;;;;30.66;19.85;94965.88;5073283;28;20052;-53
2021/09/03 02:28:04;;;;;;;4.40;3.20;;;;;;;30.71;19.95;94961.22;5080240;28;20048;-54
2021/09/03 02:30:32;;;;;;;3.53;3.22;;;;;;;30.77;19.57;94962.34;5072906;28;20048;-53
2021/09/03 02:33:00;;;;;;;6.70;3.25;;;;;;;30.95;19.70;94963.66;5073633;28;20379;-57
2021/09/03 02:35:28;;;;;;;5.47;2.88;;;;;;;31.16;19.53;94960.00;5070606;28;20059;-53
2021/09/03 02:37:56;;;;;;;7.03;2.97;;;;;;;30.87;19.73;94964.16;5073489;28;20044;-55
2021/09/03 02:40:25;;;;;;;4.28;2.70;;;;;;;30.58;19.92;94964.41;5074631;28;20059;-51
2021/09/03 02:42:52;;;;;;;5.03;2.83;;;;;;;30.66;19.60;94960.50;5074468;28;20597;-52
2021/09/03 02:45:19;;;;;;;6.50;3.17;;;;;;;30.60;19.98;94962.09;5074369;28;20048;-53
2021/09/03 02:47:47;;;;;;;3.35;2.50;;;;;;;30.61;20.10;94960.16;5074680;28;20048;-53
2021/09/03 02:50:14;;;;;;;3.83;2.75;;;;;;;30.36;20.25;94968.47;5092177;28;20048;-53
2021/09/03 02:52:41;;;;;;;3.85;2.90;;;;;;;30.25;20.71;94967.78;5094905;28;20048;-52
2021/09/03 02:55:09;;;;;;;4.95;2.80;;;;;;;30.43;20.16;94971.09;5077706;28;20048;-54
2021/09/03 02:57:36;;;;;;;4.57;3.00;;;;;;;30.31;20.32;94950.78;5081812;28;20052;-54
2021/09/03 03:00:06;;;;;;;3.95;2.92;;;;;;;30.27;20.57;94957.38;5074693;28;20055;-53
2021/09/03 03:02:33;;;;;;;4.65;2.97;;;;;;;29.97;20.90;94964.13;5074264;28;20362;-52
2021/09/03 03:05:00;;;;;;;5.53;3.20;;;;;;;30.05;20.76;94971.00;5074001;28;20063;-53
2021/09/03 03:07:27;;;;;;;7.32;3.17;;;;;;;30.15;20.93;94968.63;5073961;28;20490;-52
2021/09/03 03:09:54;;;;;;;4.78;3.33;;;;;;;29.88;20.67;94971.88;5084110;28;20052;-52
2021/09/03 03:12:21;;;;;;;4.68;3.20;;;;;;;29.73;21.01;94973.13;5074185;28;20044;-52
2021/09/03 03:14:48;;;;;;;5.95;3.17;;;;;;;29.83;20.94;94976.91;5073965;28;20040;-53
2021/09/03 03:17:17;;;;;;;6.93;3.17;;;;;;;29.84;20.74;94976.53;5074317;28;20047;-56
2021/09/03 03:19:44;;;;;;;5.35;3.28;;;;;;;29.90;20.88;94966.84;5081418;28;20052;-52
2021/09/03 03:22:11;;;;;;;5.53;3.15;;;;;;;30.12;20.48;94974.81;5094519;28;20044;-53
2021/09/03 03:24:39;;;;;;;3.90;2.72;;;;;;;29.78;21.05;94978.88;5093886;28;20056;-55
2021/09/03 03:27:06;;;;;;;5.13;3.00;;;;;;;29.83;20.89;94977.69;5094146;28;20362;-54
2021/09/03 03:29:33;;;;;;;4.40;2.85;;;;;;;29.65;21.01;94990.47;5093030;28;20051;-53
2021/09/03 03:32:00;;;;;;;6.65;3.55;;;;;;;29.41;21.63;94975.97;5094206;28;20048;-53
2021/09/03 03:34:27;;;;;;;4.60;3.30;;;;;;;29.62;21.29;94980.50;5074926;28;20055;-52
2021/09/03 03:36:54;;;;;;;7.25;3.47;;;;;;;29.43;21.65;94985.19;5097232;28;20054;-54
2021/09/03 03:39:21;;;;;;;7.05;3.55;;;;;;;29.45;21.18;94980.22;5084447;28;20044;-54
2021/09/03 03:41:50;;;;;;;7.88;4.00;;;;;;;29.26;21.46;94991.41;5098033;28;20044;-52
2021/09/03 03:44:17;;;;;;;7.78;3.75;;;;;;;29.36;21.55;94995.97;5097502;28;20374;-55
2021/09/03 03:46:44;;;;;;;8.13;3.65;;;;;;;29.29;21.61;95001.41;5097972;28;20052;-53
2021/09/03 03:49:11;;;;;;;4.45;3.47;;;;;;;29.38;21.32;94999.03;5097091;28;20386;-56
2021/09/03 03:51:38;;;;;;;6.25;3.42;;;;;;;29.83;20.62;94995.78;5097418;28;20048;-52
2021/09/03 03:54:05;;;;;;;6.13;3.70;;;;;;;29.54;21.02;94995.16;5097081;28;20043;-53
2021/09/03 03:56:32;;;;;;;4.97;3.33;;;;;;;29.80;21.02;94997.34;5097315;28;20374;-54
2021/09/03 03:58:59;;;;;;;7.85;3.38;;;;;;;29.54;21.17;95003.25;5097406;28;20051;-52
2021/09/03 04:01:27;;;;;;;5.85;3.72;;;;;;;29.62;21.23;95004.75;5078464;28;20048;-55
2021/09/03 04:03:54;;;;;;;6.60;3.60;;;;;;;29.30;21.59;95011.00;5076376;28;20048;-53
2021/09/03 04:06:21;;;;;;;7.85;3.63;;;;;;;29.67;21.09;95015.91;5077250;28;20052;-54
2021/09/03 04:08:48;;;;;;;6.25;3.22;;;;;;;29.58;21.12;95012.06;5076433;28;20049;-54
2021/09/03 04:11:15;;;;;;;6.10;2.92;;;;;;;29.80;20.78;95018.88;5076159;28;20052;-55
2021/09/03 04:13:42;;;;;;;6.45;3.22;;;;;;;29.84;20.84;95019.63;5058990;28;20280;-54
2021/09/03 04:16:09;;;;;;;7.30;3.15;;;;;;;29.75;21.03;95030.09;5076464;28;20470;-57
2021/09/03 04:18:38;;;;;;;6.10;3.00;;;;;;;29.77;21.48;95025.06;5075791;28;20055;-55
2021/09/03 04:21:06;;;;;;;4.47;2.78;;;;;;;29.99;21.29;95025.72;5080380;28;20053;-55
2021/09/03 04:23:33;;;;;;;4.10;2.88;;;;;;;30.20;20.99;95019.44;5075216;28;20048;-53
2021/09/03 04:26:00;;;;;;;6.40;3.25;;;;;;;30.97;19.94;94995.69;5081334;22;20057;-52
2021/09/03 04:28:27;;;;;;;3.97;3.35;;;;;;;32.44;18.65;95006.13;5037593;28;20053;-65
2021/09/03 04:30:54;;;;;;;5.20;3.30;;;;;;;33.35;17.77;95010.38;5052251;28;20352;-60
2021/09/03 04:33:21;;;;;;;6.50;3.08;;;;;;;34.08;17.14;95009.22;5056596;28;20052;-54
2021/09/03 04:35:49;;;;;;;7.13;3.25;;;;;;;34.54;16.81;95013.59;5056442;28;20360;-70
2021/09/03 04:38:16;;;;;;;5.78;2.60;;;;;;;35.75;16.69;95009.63;5055967;28;20052;-56
2021/09/03 04:40:44;;;;;;;5.15;2.75;;;;;;;35.67;17.11;95011.03;5055218;28;20045;-54
2021/09/03 04:43:11;;;;;;;3.60;2.60;;;;;;;35.60;17.61;95016.66;5050171;28;20045;-59
2021/09/03 04:45:38;;;;;;;7.57;2.70;;;;;;;35.44;17.68;95012.84;5076152;28;20040;-52
2021/09/03 04:48:05;;;;;;;3.13;2.53;;;;;;;35.41;17.75;95008.28;5041579;28;20053;-62
2021/09/03 04:50:32;;;;;;;7.32;2.75;;;;;;;35.34;17.61;95013.88;5036288;28;20045;-58
2021/09/03 04:52:59;;;;;;;5.22;3.00;;;;;;;35.60;17.44;95019.38;5036007;28;20562;-65
2021/09/03 04:55:26;;;;;;;4.65;2.70;;;;;;;35.77;17.29;95007.22;5039039;28;20068;-61
2021/09/03 04:57:53;;;;;;;5.22;2.88;;;;;;;35.82;17.14;95017.56;5045503;28;20041;-65
2021/09/03 05:00:22;;;;;;;5.82;3.15;;;;;;;35.30;16.70;95004.28;5056153;28;20056;-67
2021/09/03 05:02:49;;;;;;;7.53;3.85;;;;;;;35.48;16.08;95008.06;5074191;28;20458;-66
2021/09/03 05:05:17;;;;;;;4.65;3.28;;;;;;;36.13;15.59;94996.81;5075163;28;20059;-67
2021/09/03 05:07:45;;;;;;;5.53;3.38;;;;;;;36.59;14.96;95005.50;5062990;28;20379;-61
2021/09/03 05:10:12;;;;;;;5.45;3.75;;;;;;;36.97;14.71;94997.25;5056008;28;20603;-66
2021/09/03 05:12:40;;;;;;;8.85;3.22;;;;;;;37.28;14.15;94999.31;5055755;28;20060;-58
2021/09/03 05:15:13;;;;;;;8.00;3.22;;;;;;;37.55;14.04;95007.66;5055702;28;20057;-65
2021/09/03 05:17:43;;;;;;;5.78;3.30;;;;;;;37.85;14.01;95002.69;5026310;28;20045;-66
2021/09/03 05:20:11;;;;;;;5.40;3.65;;;;;;;38.03;14.14;95012.94;5035853;28;20064;-65
2021/09/03 05:22:38;;;;;;;12.20;3.38;;;;;;;38.14;13.70;95002.34;5035779;28;20467;-65
2021/09/03 05:25:06;;;;;;;7.60;3.53;;;;;;;38.29;13.40;95014.28;5043869;28;20064;-65
2021/09/03 05:27:33;;;;;;;11.40;5.07;;;;;;;38.28;14.11;95006.53;5044851;28;20076;-66
2021/09/03 05:30:00;;;;;;;15.15;4.63;;;;;;;38.50;13.67;95009.91;5055595;28;20045;-67
2021/09/03 05:32:27;;;;;;;7.00;4.68;;;;;;;38.61;13.29;95014.94;5055336;28;20045;-68
2021/09/03 05:34:54;;;;;;;12.93;4.97;;;;;;;38.69;13.39;95019.69;5055179;28;20059;-67
2021/09/03 05:37:21;;;;;;;6.72;4.60;;;;;;;38.84;13.32;95008.94;5054703;28;20052;-67
2021/09/03 05:39:48;;;;;;;10.80;4.32;;;;;;;38.97;13.40;95017.72;5055313;28;20395;-67
2021/09/03 05:42:15;;;;;;;8.85;4.25;;;;;;;38.98;13.30;95013.78;5055207;28;20052;-65
2021/09/03 05:44:42;;;;;;;7.68;4.43;;;;;;;38.98;13.05;95008.31;5054956;28;20051;-68
2021/09/03 05:47:09;;;;;;;5.38;4.13;;;;;;;39.26;13.00;95016.53;5047296;28;20460;-66
2021/09/03 05:49:37;;;;;;;6.30;4.30;;;;;;;39.37;13.00;95023.06;5038791;28;20052;-65
2021/09/03 05:52:04;;;;;;;5.50;4.10;;;;;;;39.40;12.61;95016.69;5053611;28;20056;-66
2021/09/03 05:54:31;;;;;;;7.85;3.80;;;;;;;39.34;12.73;95017.75;5054982;28;20144;-66
2021/09/03 05:56:58;;;;;;;6.43;4.50;;;;;;;39.55;12.64;95025.03;5039733;28;20048;-66
2021/09/03 05:59:25;;;;;;;7.05;4.32;;;;;;;39.75;12.74;95028.03;5052957;28;20064;-65
2021/09/03 06:01:52;;;;;;;6.45;4.03;;;;;;;39.84;12.38;95018.28;5054717;28;20045;-67
2021/09/03 06:04:19;;;;;;;7.57;4.53;;;;;;;39.89;12.55;95025.88;5038174;28;20075;-66
2021/09/03 06:06:46;;;;;;;6.28;3.90;;;;;;;40.15;12.39;95018.81;5043948;28;20432;-67
2021/09/03 06:09:13;;;;;;;7.03;4.28;;;;;;;40.12;12.72;95013.50;5035009;28;20376;-65
2021/09/03 06:11:40;;;;;;;5.65;4.65;;;;;;;40.17;12.42;95021.84;5034994;28;20052;-67
2021/09/03 06:14:07;;;;;;;7.53;4.20;;;;;;;40.40;12.05;95016.91;5039023;28;20052;-67
2021/09/03 06:16:35;;;;;;;9.63;4.70;;;;;;;40.60;12.15;95028.00;5054370;28;20056;-67
2021/09/03 06:19:02;;;;;;;15.07;4.97;;;;;;;40.66;12.14;95023.44;5054619;28;20061;-67
2021/09/03 06:21:29;;;;;;;11.75;4.70;;;;;;;40.79;12.36;95021.19;5054708;28;20080;-67
2021/09/03 06:23:57;;;;;;;7.40;4.18;;;;;;;40.90;11.94;95026.94;5054250;28;20548;-66
2021/09/03 06:26:24;;;;;;;8.45;4.40;;;;;;;40.92;11.90;95029.22;5053869;28;20072;-66
2021/09/03 06:28:51;;;;;;;7.10;4.32;;;;;;;41.04;11.80;95019.22;5035324;28;20053;-61
2021/09/03 06:31:18;;;;;;;5.70;3.80;;;;;;;41.30;11.55;95020.25;5039415;28;20052;-68
2021/09/03 06:33:45;;;;;;;9.02;4.32;;;;;;;41.40;11.59;95021.69;5053244;28;20063;-59
2021/09/03 06:36:13;;;;;;;8.00;4.30;;;;;;;41.56;11.26;95018.47;5017111;28;20341;-65
2021/09/03 06:38:40;;;;;;;6.07;3.45;;;;;;;41.67;11.83;95019.94;5034191;28;20472;-65
2021/09/03 06:41:07;;;;;;;6.30;3.78;;;;;;;41.76;11.17;95011.59;5034638;28;20057;-61
2021/09/03 06:43:34;;;;;;;7.20;3.70;;;;;;;41.73;11.11;95016.03;5039293;28;20119;-68
2021/09/03 06:46:01;;;;;;;3.95;2.83;;;;;;;42.02;11.80;95028.97;5053880;28;20498;-67
2021/09/03 06:48:28;;;;;;;5.78;3.00;;;;;;;41.14;12.48;95023.41;5037440;28;20050;-63
2021/09/03 06:50:55;;;;;;;8.25;3.90;;;;;;;40.63;13.01;95019.66;5034289;28;20076;-59
2021/09/03 06:53:22;;;;;;;8.55;3.95;;;;;;;40.43;12.86;95024.19;5034673;28;20045;-64
2021/09/03 06:55:49;;;;;;;6.63;4.18;;;;;;;40.28;12.72;95016.59;5044071;28;20068;-65
2021/09/03 06:58:16;;;;;;;6.03;3.90;;;;;;;39.91;13.20;95023.44;5040592;28;20048;-62
2021/09/03 07:00:44;;;;;;;6.45;3.38;;;;;;;39.92;13.07;95028.44;5038655;28;20057;-62
2021/09/03 07:03:11;;;;;;;9.35;4.18;;;;;;;39.92;13.26;95027.69;5054199;28;20363;-65
2021/09/03 07:05:38;;;;;;;6.28;4.00;;;;;;;40.01;12.92;95030.41;5052899;28;20045;-63
2021/09/03 07:08:06;;;;;;;5.45;3.88;;;;;;;39.85;12.94;95033.50;5046907;28;20064;-66
2021/09/03 07:10:33;;;;;;;7.15;3.40;;;;;;;39.93;13.27;95018.25;5055635;28;20041;-64
2021/09/03 07:13:00;;;;;;;5.78;3.80;;;;;;;39.93;12.34;95013.53;5057906;28;20057;-66
2021/09/03 07:15:27;;;;;;;5.25;3.55;;;;;;;41.09;11.45;95011.09;5057046;28;20048;-61
2021/09/03 07:17:54;;;;;;;20.77;3.45;;;;;;;41.61;11.30;95021.78;5044318;28;20056;-66
2021/09/03 07:20:22;;;;;;;7.93;3.58;;;;;;;42.15;11.29;95015.72;5052293;28;20037;-64
2021/09/03 07:22:51;;;;;;;4.47;3.67;;;;;;;42.60;11.10;95015.63;5057704;28;20048;-66
2021/09/03 07:25:18;;;;;;;5.88;3.72;;;;;;;43.02;10.55;95026.19;5047912;28;20041;-61
2021/09/03 07:27:45;;;;;;;10.00;3.92;;;;;;;43.14;10.02;95018.78;5050933;28;20057;-68
2021/09/03 07:30:12;;;;;;;8.73;4.18;;;;;;;43.32;9.91;95024.78;5057127;28;20045;-67
2021/09/03 07:32:43;;;;;;;5.50;3.55;;;;;;;43.81;9.92;95023.00;5057100;28;20053;-67
2021/09/03 07:35:11;;;;;;;7.47;3.40;;;;;;;44.03;9.92;95035.44;5055614;28;20052;-67
2021/09/03 07:37:42;;;;;;;8.40;3.60;;;;;;;44.26;9.71;95037.16;5046819;28;20052;-67
2021/09/03 07:40:09;;;;;;;;;;;;;;;45.08;9.47;95040.88;5048777;28;20053;-67
2021/09/03 07:42:37;;;;;;;16.83;4.30;;;;;;;43.77;9.99;95036.25;5056800;28;19920;-66
2021/09/03 07:45:07;;;;;;;8.93;4.30;;;;;;;44.04;10.00;95032.22;5055969;28;20482;-66
2021/09/03 07:47:34;;;;;;;8.47;3.30;;;;;;;44.48;9.37;95031.03;5054276;28;20047;-67
2021/09/03 07:50:01;;;;;;;5.80;3.78;;;;;;;44.69;9.29;95023.38;5056483;28;20049;-67
2021/09/03 07:52:28;;;;;;;6.82;3.70;;;;;;;44.65;9.52;95026.38;5056411;28;20044;-67
2021/09/03 07:54:55;;;;;;;9.77;3.53;;;;;;;44.65;9.54;95028.38;5048538;28;20049;-68
2021/09/03 07:57:22;;;;;;;4.30;3.20;;;;;;;44.34;9.40;95018.91;5052739;28;20053;-67
2021/09/03 07:59:49;;;;;;;4.75;3.13;;;;;;;44.28;9.33;95018.13;5056341;28;20048;-67
2021/09/03 08:02:16;;;;;;;3.83;3.05;;;;;;;44.23;9.50;95016.06;5057308;28;20444;-67
2021/09/03 08:04:43;;;;;;;6.18;3.25;;;;;;;44.42;9.54;95008.94;5055278;28;20057;-67
2021/09/03 08:07:10;;;;;;;5.03;3.28;;;;;;;44.44;9.22;95011.94;5051321;28;20041;-66
2021/09/03 08:09:37;;;;;;;6.40;3.28;;;;;;;44.40;9.31;95007.91;5041325;28;20059;-67
2021/09/03 08:12:05;;;;;;;4.72;3.75;;;;;;;44.42;9.12;94999.91;5056288;28;20060;-66
2021/09/03 08:14:32;;;;;;;8.07;3.33;;;;;;;44.53;9.11;94994.50;5056736;28;20049;-64
2021/09/03 08:16:59;;;;;;;4.32;3.00;;;;;;;45.43;9.58;94990.06;5055884;28;20053;-59
2021/09/03 08:19:26;;;;;;;5.57;3.00;;;;;;;44.02;10.54;94990.63;5055810;28;20049;-60
2021/09/03 08:21:53;;;;;;;6.22;3.20;;;;;;;42.84;11.09;94999.69;5055155;28;20053;-59
2021/09/03 08:24:20;;;;;;;5.35;2.90;;;;;;;42.23;11.77;94993.38;5053985;28;20045;-66
2021/09/03 08:26:47;;;;;;;4.78;3.00;;;;;;;41.93;11.95;94987.16;5049919;28;20053;-62
2021/09/03 08:29:14;;;;;;;3.78;3.05;;;;;;;41.55;12.05;94986.78;5036955;28;20049;-60
2021/09/03 08:31:42;;;;;;;7.07;3.70;;;;;;;41.46;12.04;94984.13;5056779;28;20052;-58
2021/09/03 08:34:09;;;;;;;10.68;4.43;;;;;;;41.26;11.83;94970.31;5054668;28;20052;-58
2021/09/03 08:36:36;;;;;;;7.70;4.07;;;;;;;41.36;11.96;94973.72;5036660;28;20060;-58
2021/09/03 08:39:03;;;;;;;9.38;4.22;;;;;;;41.00;11.99;94961.84;5036398;28;20057;-67
2021/09/03 08:41:30;;;;;;;14.50;12.70;;;;;;;41.23;12.09;94961.06;5045460;28;20052;-60
2021/09/03 08:43:59;;;;;;;8.05;4.88;;;;;;;41.16;11.92;94958.66;5055670;28;20044;-67
2021/09/03 08:46:28;;;;;;;5.80;3.90;;;;;;;41.24;11.75;94968.03;5036220;28;20057;-65
2021/09/03 08:48:55;;;;;;;6.88;4.15;;;;;;;40.98;12.05;94970.53;5035981;28;20052;-62
2021/09/03 08:51:22;;;;;;;6.70;3.47;;;;;;;41.08;12.11;94973.94;5054630;28;20052;-67
2021/09/03 08:53:49;;;;;;;6.22;3.60;;;;;;;40.88;11.96;94969.09;5034946;28;20042;-64
2021/09/03 08:56:20;;;;;;;5.65;3.58;;;;;;;40.92;11.89;94958.72;5051674;28;20060;-62
2021/09/03 08:58:47;;;;;;;;;;;;;;;41.16;11.93;94955.16;5055952;28;20371;-67
2021/09/03 09:01:16;;;;;;;4.60;3.25;;;;;;;41.06;12.04;94954.47;5055676;28;19927;-66
2021/09/03 09:03:44;;;;;;;3.90;2.95;;;;;;;41.00;11.78;94953.63;5047073;28;20088;-66
2021/09/03 09:06:22;;;;;;;4.70;3.60;;;;;;;41.12;11.88;94944.38;5051736;28;20071;-66
2021/09/03 09:09:03;;;;;;;4.43;3.10;;;;;;;41.01;11.92;94948.88;5055891;28;20053;-66
2021/09/03 09:11:32;;;;;;;4.28;3.35;;;;;;;40.95;12.09;94952.28;5055909;28;20045;-60
2021/09/03 09:14:05;;;;;;;3.92;3.40;;;;;;;40.83;12.06;94950.56;5055535;28;20056;-67
2021/09/03 09:16:33;;;;;;;11.95;3.72;;;;;;;40.88;12.17;94947.19;5037001;28;20057;-59
2021/09/03 09:19:04;;;;;;;4.05;3.53;;;;;;;40.58;12.06;94938.09;5034977;28;20052;-62
2021/09/03 09:21:35;;;;;;;4.25;3.22;;;;;;;40.82;11.85;94954.53;5035780;28;20052;-59
2021/09/03 09:24:09;;;;;;;7.07;3.60;;;;;;;40.75;12.07;94948.63;5034565;28;20041;-65
2021/09/03 09:26:54;;;;;;;6.93;3.90;;;;;;;40.70;11.93;94941.81;5049584;28;20069;-63
2021/09/03 09:29:27;;;;;;;5.20;3.47;;;;;;;40.48;12.12;94946.84;5055474;28;20049;-67
2021/09/03 09:32:04;;;;;;;6.53;3.38;;;;;;;40.44;12.18;94940.78;5034608;28;20048;-67
2021/09/03 09:34:36;;;;;;;6.15;4.07;;;;;;;40.58;12.06;94940.81;5034570;28;20054;-64
2021/09/03 09:37:10;;;;;;;6.05;3.65;;;;;;;40.53;12.17;94937.97;5035401;28;20049;-63
2021/09/03 09:39:45;;;;;;;5.97;3.50;;;;;;;40.49;12.35;94938.16;5035470;28;20478;-67
2021/09/03 09:42:24;;;;;;;4.93;3.83;;;;;;;40.52;12.30;94936.47;5035426;28;20048;-60
2021/09/03 09:45:08;;;;;;;3.97;3.38;;;;;;;40.66;12.05;94931.03;5038160;28;20048;-58
2021/09/03 09:47:37;;;;;;;5.65;3.30;;;;;;;40.49;12.10;94934.66;5055204;28;20049;-61
2021/09/03 09:50:32;;;;;;;3.90;3.47;;;;;;;40.38;12.25;94931.72;5055195;28;20044;-61
2021/09/03 09:53:14;;;;;;;4.43;3.55;;;;;;;40.52;12.01;94925.50;5053673;28;20053;-62
2021/09/03 09:55:42;;;;;;;3.75;3.35;;;;;;;40.47;12.21;94926.16;5052845;28;20044;-56
2021/09/03 09:58:09;;;;;;;4.45;3.42;;;;;;;40.38;12.02;94915.28;5054713;28;20051;-55
2021/09/03 10:00:36;;;;;;;3.80;3.47;;;;;;;40.39;12.02;94922.25;5037393;28;20378;-58
2021/09/03 10:03:05;;;;;;;3.72;3.38;;;;;;;40.51;11.94;94924.00;5035867;28;20386;-55
2021/09/03 10:05:32;;;;;;;3.45;3.05;;;;;;;40.37;12.14;94909.00;5034809;28;20321;-65
2021/09/03 10:08:00;;;;;;;3.65;3.35;;;;;;;40.16;12.13;94910.81;5017015;28;20050;-55
2021/09/03 10:10:27;;;;;;;5.47;3.10;;;;;;;40.24;12.20;94911.97;5016714;28;20056;-56
2021/09/03 10:12:55;;;;;;;3.47;3.03;;;;;;;40.40;12.10;94910.09;5034784;28;20053;-55
2021/09/03 10:15:22;;;;;;;3.13;2.72;;;;;;;40.13;12.25;94906.28;5016806;28;20049;-55
2021/09/03 10:17:49;;;;;;;3.38;2.90;;;;;;;40.22;12.15;94892.53;5034874;28;20076;-58
2021/09/03 10:20:16;;;;;;;3.30;3.00;;;;;;;40.31;12.21;94895.19;5034861;28;20052;-59
2021/09/03 10:22:46;;;;;;;3.75;3.35;;;;;;;40.30;12.44;94893.66;5034601;28;20057;-65
2021/09/03 10:25:13;;;;;;;4.57;3.00;;;;;;;40.16;12.54;94905.34;5032870;28;20124;-66
2021/09/03 10:27:41;;;;;;;6.45;3.15;;;;;;;40.16;12.44;94894.38;5036300;28;20371;-67
2021/09/03 10:30:16;;;;;;;3.58;2.72;;;;;;;40.17;12.42;94893.16;5027565;28;20045;-66
2021/09/03 10:32:44;;;;;;;3.97;3.17;;;;;;;40.23;12.49;94894.03;5043393;28;20071;-53
2021/09/03 10:35:34;;;;;;;3.80;3.40;;;;;;;40.22;12.53;94899.97;5049163;28;20053;-49
2021/09/03 10:38:12;;;;;;;5.13;3.72;;;;;;;40.08;12.14;94887.75;5037114;28;20045;-53
2021/09/03 10:40:40;;;;;;;4.95;2.95;;;;;;;41.21;11.30;94880.47;5032976;28;20049;-53
2021/09/03 10:43:07;;;;;;;5.88;3.60;;;;;;;41.84;11.39;94873.50;5034510;28;20045;-57
2021/09/03 10:45:39;;;;;;;5.57;3.42;;;;;;;42.31;10.97;94860.66;5040903;28;20043;-54
2021/09/03 10:48:11;;;;;;;7.15;3.10;;;;;;;42.59;10.12;94871.97;5037072;28;20059;-53
2021/09/03 10:50:52;;;;;;;6.45;3.28;;;;;;;43.01;9.58;94870.69;5051791;28;20059;-57
2021/09/03 10:53:27;;;;;;;;;;;;;;;43.35;9.69;94864.25;5054877;28;20053;-53
2021/09/03 10:56:06;;;;;;;3.85;3.42;;;;;;;43.44;9.69;94859.78;5053113;28;19925;-53
2021/09/03 10:58:38;;;;;;;3.50;3.13;;;;;;;43.43;9.32;94853.53;5053445;28;20041;-55
2021/09/03 11:01:11;;;;;;;4.93;3.30;;;;;;;43.30;9.86;94848.47;5033753;28;20053;-54
2021/09/03 11:03:48;;;;;;;3.05;2.75;;;;;;;43.44;9.52;94848.78;5033561;28;20061;-57
2021/09/03 11:06:25;;;;;;;3.90;3.00;;;;;;;43.56;9.79;94856.66;5033897;28;20064;-55
2021/09/03 11:08:57;;;;;;;4.05;3.10;;;;;;;43.87;9.63;94847.59;5037611;28;20060;-55
2021/09/03 11:11:38;;;;;;;4.32;2.65;;;;;;;44.04;9.50;94855.19;5034250;28;20356;-55
2021/09/03 11:14:08;;;;;;;4.00;2.70;;;;;;;43.87;9.43;94857.84;5039926;28;20056;-56
2021/09/03 11:16:36;;;;;;;3.78;2.58;;;;;;;44.23;9.68;94856.28;5042852;28;20042;-53
2021/09/03 11:19:13;;;;;;;4.32;2.83;;;;;;;44.01;9.34;94850.69;5033827;28;20064;-55
2021/09/03 11:21:52;;;;;;;2.95;2.63;;;;;;;43.89;9.61;94845.09;5033205;28;20053;-54
2021/09/03 11:24:22;;;;;;;4.22;2.72;;;;;;;44.28;9.44;94847.31;5034023;28;20392;-53
2021/09/03 11:26:51;;;;;;;7.05;3.13;;;;;;;44.42;9.10;94840.84;5050125;28;20379;-57
2021/09/03 11:29:27;;;;;;;5.10;2.80;;;;;;;44.50;9.14;94847.41;5047372;28;20041;-55
2021/09/03 11:32:08;;;;;;;3.42;2.80;;;;;;;44.83;9.07;94846.00;5033857;28;20045;-55
2021/09/03 11:34:55;;;;;;;3.10;2.78;;;;;;;44.76;8.97;94846.47;5033002;28;20054;-53
2021/09/03 11:37:22;;;;;;;3.60;2.90;;;;;;;44.86;8.90;94834.00;5050883;28;20051;-53
2021/09/03 11:39:52;;;;;;;4.40;2.60;;;;;;;45.05;8.65;94835.00;5053152;28;20049;-57